Time;durP1;ratioP1;P1;durP2;ratioP2;P2;SDS_P1;SDS_P2;PMS_P1;PMS_P2;Temp;Humidity;BMP_temperature;BMP_pressure;BME280_temperature;BME280_humidity;BME280_pressure;Samples;Min_cycle;Max_cycle;Signal;HPM_P1;HPM_P2
2021/06/05 00:00:56;;;;;;;14.50;8.50;;;;;;;14.13;100.00;99745.45;1822232;78;20963;-68
2021/06/05 00:03:23;;;;;;;15.35;9.00;;;;;;;14.11;100.00;99740.35;1822344;78;20836;-68
2021/06/05 00:05:56;;;;;;;18.80;9.98;;;;;;;14.10;100.00;99731.16;1821852;78;20921;-68
2021/06/05 00:08:23;;;;;;;17.30;7.58;;;;;;;14.08;100.00;99739.52;1822162;78;20848;-68
2021/06/05 00:10:56;;;;;;;12.90;8.48;;;;;;;14.06;100.00;99743.58;1821722;78;21364;-68
2021/06/05 00:13:31;;;;;;;14.47;7.42;;;;;;;14.03;100.00;99743.58;1822118;78;20821;-67
2021/06/05 00:16:00;;;;;;;14.25;7.40;;;;;;;14.02;100.00;99741.98;1821902;78;21010;-68
2021/06/05 00:18:28;;;;;;;12.93;7.37;;;;;;;14.04;100.00;99739.02;1822264;78;20943;-67
2021/06/05 00:20:56;;;;;;;;;;;;;;;14.04;100.00;99739.02;1824753;78;21498;-68
2021/06/05 00:23:23;;;;;;;11.97;6.37;;;;;;;14.02;100.00;99743.88;1822263;78;21132;-68
2021/06/05 00:25:51;;;;;;;14.18;6.03;;;;;;;13.99;100.00;99735.78;1821934;78;21039;-68
2021/06/05 00:28:19;;;;;;;17.45;6.50;;;;;;;14.00;100.00;99738.73;1795259;78;20936;-68
2021/06/05 00:30:46;;;;;;;15.18;6.70;;;;;;;13.99;100.00;99733.59;1822044;78;21011;-68
2021/06/05 00:33:13;;;;;;;17.32;9.58;;;;;;;13.94;100.00;99734.44;1821915;78;20899;-68
2021/06/05 00:35:41;;;;;;;62.33;36.60;;;;;;;13.90;100.00;99721.20;1821910;78;21101;-68
2021/06/05 00:38:09;;;;;;;103.07;63.65;;;;;;;13.87;100.00;99729.86;1794765;78;21455;-66
2021/06/05 00:40:45;;;;;;;48.28;26.37;;;;;;;13.85;100.00;99727.42;1821986;78;20952;-67
2021/06/05 00:43:13;;;;;;;73.05;41.23;;;;;;;13.84;100.00;99729.03;1822407;78;20865;-67
2021/06/05 00:45:44;;;;;;;284.30;168.72;;;;;;;13.84;100.00;99727.16;1822038;78;20919;-68
2021/06/05 00:48:14;;;;;;;216.85;125.10;;;;;;;13.83;100.00;99724.72;1822070;78;21837;-68
2021/06/05 00:50:43;;;;;;;187.75;104.32;;;;;;;13.81;100.00;99721.48;1821653;78;20887;-68
2021/06/05 00:53:11;;;;;;;96.75;56.70;;;;;;;13.77;100.00;99721.23;1822009;78;20884;-68
2021/06/05 00:55:42;;;;;;;87.22;51.40;;;;;;;13.75;100.00;99722.03;1821449;78;20873;-68
2021/06/05 00:58:09;;;;;;;83.92;49.93;;;;;;;13.72;100.00;99722.03;1822447;78;20824;-68
2021/06/05 01:00:46;;;;;;;54.85;32.17;;;;;;;13.66;100.00;99723.10;1822060;78;21155;-68
2021/06/05 01:03:14;;;;;;;36.68;22.50;;;;;;;13.62;100.00;99719.86;1822065;78;20852;-68
2021/06/05 01:05:43;;;;;;;28.30;18.77;;;;;;;13.55;100.00;99716.10;1821834;78;20915;-69
2021/06/05 01:08:31;;;;;;;;;;;;;;;13.49;100.00;99715.81;1825033;78;20899;-69
2021/06/05 01:11:04;;;;;;;20.50;13.35;;;;;;;13.42;100.00;99710.68;1805167;79;20067;-68
2021/06/05 01:13:42;;;;;;;18.60;10.98;;;;;;;13.35;100.00;99708.81;1767228;79;22215;-67
2021/06/05 01:16:19;;;;;;;33.15;18.65;;;;;;;13.24;100.00;99705.25;1805188;79;28609;-68
2021/06/05 01:18:59;;;;;;;16.48;8.40;;;;;;;13.13;100.00;99708.19;1805068;79;20977;-68
2021/06/05 01:21:48;;;;;;;17.52;7.33;;;;;;;12.98;100.00;99708.42;1804649;79;21505;-68
2021/06/05 01:24:27;;;;;;;14.87;8.98;;;;;;;12.88;100.00;99711.09;1805201;79;20973;-68
2021/06/05 01:27:02;;;;;;;15.55;7.85;;;;;;;12.79;100.00;99707.31;1805054;79;21572;-68
2021/06/05 01:29:34;;;;;;;12.33;7.20;;;;;;;12.66;100.00;99704.55;1804417;79;20831;-68
2021/06/05 01:32:05;;;;;;;15.15;7.90;;;;;;;12.56;100.00;99703.17;1805052;79;20843;-68
2021/06/05 01:34:42;;;;;;;22.37;7.42;;;;;;;12.43;100.00;99705.27;1779670;79;20977;-68
2021/06/05 01:37:12;;;;;;;17.00;7.10;;;;;;;12.26;100.00;99700.61;1805213;79;21417;-68
2021/06/05 01:39:45;;;;;;;16.60;8.13;;;;;;;12.11;100.00;99694.61;1805056;79;21153;-68
2021/06/05 01:42:22;;;;;;;13.95;7.22;;;;;;;12.05;100.00;99698.87;1804774;79;20960;-68
2021/06/05 01:44:56;;;;;;;13.35;7.97;;;;;;;12.00;100.00;99695.61;1778186;79;21460;-69
2021/06/05 01:47:24;;;;;;;20.50;7.62;;;;;;;11.94;100.00;99698.80;1785471;80;20848;-68
2021/06/05 01:49:59;;;;;;;10.20;7.10;;;;;;;11.88;100.00;99691.78;1789350;80;20979;-68
2021/06/05 01:52:31;;;;;;;13.30;6.83;;;;;;;11.84;100.00;99693.88;1789571;80;21395;-67
2021/06/05 01:55:11;;;;;;;11.57;6.85;;;;;;;11.83;100.00;99698.95;1789523;80;20864;-67
2021/06/05 01:57:45;;;;;;;13.35;7.60;;;;;;;11.77;100.00;99690.86;1789591;80;20872;-67
2021/06/05 02:00:22;;;;;;;14.38;7.67;;;;;;;11.71;100.00;99699.13;1769764;80;20963;-67
2021/06/05 02:02:55;;;;;;;26.57;8.88;;;;;;;11.64;100.00;99697.23;1789656;80;20899;-67
2021/06/05 02:05:29;;;;;;;15.18;7.42;;;;;;;11.62;100.00;99698.81;1788625;80;21313;-67
2021/06/05 02:07:59;;;;;;;18.60;8.40;;;;;;;11.67;100.00;99696.70;1789380;80;20983;-68
2021/06/05 02:10:29;;;;;;;21.97;9.50;;;;;;;11.72;100.00;99693.52;1789545;80;20908;-68
2021/06/05 02:12:58;;;;;;;17.57;9.40;;;;;;;11.78;100.00;99697.88;1789424;80;21470;-68
2021/06/05 02:15:50;;;;;;;14.13;8.25;;;;;;;11.85;100.00;99699.52;1789453;80;21006;-67
2021/06/05 02:18:25;;;;;;;18.80;10.38;;;;;;;11.91;100.00;99696.64;1789564;80;21133;-68
2021/06/05 02:21:03;;;;;;;20.12;12.60;;;;;;;11.97;100.00;99698.82;1788971;80;20852;-67
2021/06/05 02:23:43;;;;;;;23.20;15.43;;;;;;;11.99;100.00;99700.18;1789809;80;21360;-68
2021/06/05 02:26:12;;;;;;;24.55;10.28;;;;;;;12.00;100.00;99698.30;1789511;80;21427;-68
2021/06/05 02:28:39;;;;;;;15.10;10.80;;;;;;;12.01;100.00;99705.31;1763680;80;20932;-67
2021/06/05 02:31:09;;;;;;;20.50;8.70;;;;;;;12.03;100.00;99701.00;1789574;80;21866;-68
2021/06/05 02:33:38;;;;;;;14.85;8.53;;;;;;;12.06;100.00;99704.00;1789449;80;21485;-68
2021/06/05 02:36:11;;;;;;;20.12;8.05;;;;;;;12.13;100.00;99707.81;1789529;80;21033;-67
2021/06/05 02:38:41;;;;;;;21.30;7.70;;;;;;;12.21;100.00;99706.77;1789612;80;20927;-68
2021/06/05 02:41:10;;;;;;;13.35;9.15;;;;;;;12.29;100.00;99710.84;1763462;80;20832;-68
2021/06/05 02:43:37;;;;;;;;;;;;;;;12.37;100.00;99710.37;1792418;80;21525;-68
2021/06/05 02:46:25;;;;;;;20.70;12.13;;;;;;;12.48;100.00;99705.83;1789853;80;20173;-68
2021/06/05 02:49:00;;;;;;;21.65;10.55;;;;;;;12.54;100.00;99708.00;1785669;80;21129;-68
2021/06/05 02:51:38;;;;;;;21.68;11.30;;;;;;;12.59;100.00;99711.55;1786335;80;20904;-68
2021/06/05 02:54:06;;;;;;;18.48;10.00;;;;;;;12.66;100.00;99709.94;1786859;80;20962;-68
2021/06/05 02:56:34;;;;;;;20.25;9.48;;;;;;;12.74;100.00;99711.31;1786970;80;22378;-68
2021/06/05 02:59:01;;;;;;;14.10;8.30;;;;;;;12.82;100.00;99710.27;1786942;80;20864;-68
2021/06/05 03:01:30;;;;;;;16.77;9.45;;;;;;;12.91;100.00;99708.41;1786278;80;20868;-68
2021/06/05 03:04:00;;;;;;;18.05;7.35;;;;;;;13.01;100.00;99698.48;1786976;80;20904;-68
2021/06/05 03:06:29;;;;;;;15.38;7.60;;;;;;;13.08;100.00;99706.28;1786823;80;21568;-68
2021/06/05 03:08:58;;;;;;;19.67;7.72;;;;;;;13.17;100.00;99699.30;1786850;80;21446;-68
2021/06/05 03:11:28;;;;;;;15.05;7.90;;;;;;;13.26;100.00;99704.45;1786817;80;20872;-68
2021/06/05 03:14:02;;;;;;;14.75;6.78;;;;;;;13.35;100.00;99703.94;1786738;80;21533;-67
2021/06/05 03:16:32;;;;;;;15.30;6.45;;;;;;;13.45;100.00;99712.86;1786730;80;20836;-66
2021/06/05 03:19:04;;;;;;;10.75;6.53;;;;;;;13.56;100.00;99708.81;1786883;80;20899;-66
2021/06/05 03:21:33;;;;;;;15.95;6.92;;;;;;;13.65;100.00;99700.46;1786961;80;21118;-67
2021/06/05 03:24:02;;;;;;;9.40;6.12;;;;;;;13.76;100.00;99709.34;1785666;80;20924;-67
2021/06/05 03:26:34;;;;;;;9.35;6.22;;;;;;;13.85;100.00;99705.03;1786698;80;20895;-67
2021/06/05 03:29:04;;;;;;;13.93;6.05;;;;;;;13.93;100.00;99707.17;1786721;80;20951;-67
2021/06/05 03:31:32;;;;;;;12.20;7.05;;;;;;;14.05;100.00;99702.29;1787241;80;20906;-67
2021/06/05 03:34:01;;;;;;;12.70;6.42;;;;;;;14.13;100.00;99708.50;1786937;80;21815;-66
2021/06/05 03:36:29;;;;;;;9.65;5.70;;;;;;;14.22;100.00;99709.28;1758363;80;21495;-67
2021/06/05 03:39:00;;;;;;;11.60;6.85;;;;;;;14.30;100.00;99707.36;1786847;80;20915;-67
2021/06/05 03:41:33;;;;;;;10.13;5.65;;;;;;;14.37;100.00;99710.03;1786864;80;21469;-67
2021/06/05 03:44:00;;;;;;;14.78;6.35;;;;;;;14.46;100.00;99700.03;1786895;80;20911;-68
2021/06/05 03:46:28;;;;;;;14.43;7.12;;;;;;;14.56;100.00;99705.42;1787164;80;21180;-68
2021/06/05 03:48:57;;;;;;;14.13;6.55;;;;;;;14.67;100.00;99700.23;1786298;80;20967;-66
2021/06/05 03:51:29;;;;;;;18.55;7.45;;;;;;;14.79;100.00;99707.46;1786656;80;20915;-68
2021/06/05 03:54:00;;;;;;;12.60;6.00;;;;;;;14.88;100.00;99710.41;1786850;80;20910;-68
2021/06/05 03:56:27;;;;;;;22.17;7.10;;;;;;;15.03;100.00;99702.76;1787216;80;20971;-67
2021/06/05 03:58:54;;;;;;;12.93;6.62;;;;;;;15.17;100.00;99705.66;1786869;80;21156;-68
2021/06/05 04:01:24;;;;;;;;;;;;;;;15.35;100.00;99704.17;1789427;80;20974;-68
2021/06/05 04:03:52;;;;;;;15.40;6.12;;;;;;;15.55;100.00;99707.27;1786875;80;20094;-66
2021/06/05 04:06:20;;;;;;;11.50;5.70;;;;;;;15.63;100.00;99706.67;1786681;80;20943;-67
2021/06/05 04:08:48;;;;;;;;;;;;;;;15.74;100.00;99704.71;1789420;80;20962;-66
2021/06/05 04:11:15;;;;;;;19.98;5.85;;;;;;;15.93;100.00;99704.27;1787355;80;21169;-66
2021/06/05 04:13:43;;;;;;;13.75;6.53;;;;;;;16.13;100.00;99705.16;1786791;80;20951;-67
2021/06/05 04:16:10;;;;;;;19.48;6.10;;;;;;;16.22;100.00;99708.30;1786995;80;20903;-67
2021/06/05 04:18:40;;;;;;;13.60;5.25;;;;;;;16.33;100.00;99704.13;1786772;80;21473;-67
2021/06/05 04:21:10;;;;;;;15.03;5.22;;;;;;;16.33;100.00;99708.19;1786969;80;20970;-68
2021/06/05 04:23:38;;;;;;;13.48;5.60;;;;;;;16.52;100.00;99706.34;1786727;80;21982;-67
2021/06/05 04:26:06;;;;;;;15.83;5.30;;;;;;;16.80;100.00;99704.66;1786865;80;20959;-66
2021/06/05 04:28:33;;;;;;;15.08;5.45;;;;;;;17.01;98.60;99701.69;1786941;80;20911;-65
2021/06/05 04:31:01;;;;;;;18.10;5.47;;;;;;;17.13;96.10;99702.05;1786988;80;20915;-67
2021/06/05 04:33:29;;;;;;;11.05;4.65;;;;;;;17.26;95.06;99701.30;1786862;80;20912;-67
2021/06/05 04:35:59;;;;;;;13.35;5.08;;;;;;;17.31;94.11;99698.51;1787028;80;21584;-66
2021/06/05 04:38:26;;;;;;;12.00;4.78;;;;;;;17.34;94.65;99702.02;1786795;80;20923;-68
2021/06/05 04:40:54;;;;;;;9.05;5.03;;;;;;;17.31;95.28;99701.78;1786912;80;21002;-67
2021/06/05 04:43:21;;;;;;;9.60;4.85;;;;;;;17.27;95.07;99701.58;1786833;80;20868;-66
2021/06/05 04:45:48;;;;;;;8.18;4.15;;;;;;;17.26;94.38;99699.94;1786764;80;20967;-67
2021/06/05 04:48:16;;;;;;;9.63;5.60;;;;;;;17.13;95.56;99696.07;1786996;80;21474;-68
2021/06/05 04:50:42;;;;;;;13.22;5.33;;;;;;;17.02;95.91;99701.38;1786657;80;20884;-67
2021/06/05 04:53:09;;;;;;;12.58;5.55;;;;;;;16.99;97.76;99694.39;1786857;80;20904;-68
2021/06/05 04:55:36;;;;;;;13.70;5.67;;;;;;;17.11;99.54;99699.62;1786789;80;20875;-66
2021/06/05 04:58:04;;;;;;;15.98;6.25;;;;;;;17.28;100.00;99696.39;1786839;80;20960;-67
2021/06/05 05:00:40;;;;;;;7.85;4.83;;;;;;;17.47;98.25;99696.94;1786967;80;21914;-65
2021/06/05 05:03:09;;;;;;;12.30;6.35;;;;;;;17.63;95.35;99698.27;1786672;80;20912;-66
2021/06/05 05:05:37;;;;;;;9.73;5.53;;;;;;;17.50;94.70;99695.78;1787056;80;20961;-67
2021/06/05 05:08:08;;;;;;;20.67;6.07;;;;;;;17.47;95.64;99692.86;1786606;80;20919;-67
2021/06/05 05:10:39;;;;;;;11.68;5.53;;;;;;;17.49;95.34;99700.13;1786815;80;20904;-66
2021/06/05 05:13:05;;;;;;;18.37;6.25;;;;;;;17.36;92.81;99699.78;1786778;80;21140;-67
2021/06/05 05:15:32;;;;;;;10.82;5.90;;;;;;;17.28;92.42;99696.39;1786659;80;20888;-66
2021/06/05 05:17:59;;;;;;;12.47;6.20;;;;;;;17.30;93.17;99694.20;1786778;80;21422;-67
2021/06/05 05:20:31;;;;;;;14.07;6.75;;;;;;;17.33;92.89;99688.73;1786919;80;20919;-69
2021/06/05 05:22:59;;;;;;;7.25;5.33;;;;;;;17.45;93.44;99692.34;1786817;80;21478;-66
2021/06/05 05:25:26;;;;;;;11.65;5.78;;;;;;;17.56;92.47;99693.25;1786711;80;21141;-68
2021/06/05 05:27:54;;;;;;;13.68;6.00;;;;;;;17.78;91.74;99687.18;1786699;80;21455;-66
2021/06/05 05:30:33;;;;;;;7.30;4.50;;;;;;;18.03;91.92;99687.86;1786994;80;20955;-66
2021/06/05 05:33:00;;;;;;;8.28;4.10;;;;;;;18.20;83.44;99684.00;1786410;80;20931;-65
2021/06/05 05:35:28;;;;;;;6.97;4.45;;;;;;;18.28;80.45;99688.48;1786466;80;20966;-66
2021/06/05 05:38:02;;;;;;;4.65;3.27;;;;;;;18.54;78.42;99686.04;1786580;80;21089;-66
2021/06/05 05:40:35;;;;;;;4.30;3.22;;;;;;;18.71;75.12;99684.86;1786730;80;20908;-68
2021/06/05 05:43:05;;;;;;;14.45;4.17;;;;;;;19.02;73.02;99686.95;1786813;80;21034;-63
2021/06/05 05:45:32;;;;;;;7.25;3.70;;;;;;;19.03;70.94;99685.30;1787167;80;20952;-64
2021/06/05 05:48:06;;;;;;;10.20;3.70;;;;;;;19.15;71.43;99686.65;1786451;80;20824;-65
2021/06/05 05:50:37;;;;;;;5.03;3.00;;;;;;;19.41;71.79;99687.66;1786709;80;21120;-67
2021/06/05 05:53:06;;;;;;;8.68;3.60;;;;;;;19.49;71.00;99684.75;1788882;80;20888;-67
2021/06/05 05:55:33;;;;;;;5.92;3.62;;;;;;;19.56;70.87;99684.33;1789542;80;20860;-66
2021/06/05 05:58:06;;;;;;;7.42;3.75;;;;;;;19.53;71.49;99682.23;1789502;80;20931;-65
2021/06/05 06:00:36;;;;;;;5.87;3.70;;;;;;;19.64;70.04;99687.09;1789647;80;21419;-69
2021/06/05 06:03:05;;;;;;;10.23;4.10;;;;;;;19.69;70.70;99686.19;1789444;80;21014;-68
2021/06/05 06:05:34;;;;;;;;;;;;;;;19.91;71.25;99690.80;1792060;80;20895;-68
2021/06/05 06:08:05;;;;;;;15.90;4.83;;;;;;;20.03;70.64;99688.30;1789431;80;20070;-67
2021/06/05 06:10:33;;;;;;;7.17;4.45;;;;;;;20.08;70.72;99687.36;1790092;80;21490;-66
2021/06/05 06:13:00;;;;;;;12.80;5.00;;;;;;;20.27;70.04;99683.83;1789623;80;20895;-65
2021/06/05 06:15:28;;;;;;;16.55;4.40;;;;;;;20.34;69.84;99686.11;1788992;80;21117;-65
2021/06/05 06:17:58;;;;;;;7.35;3.87;;;;;;;20.25;69.82;99684.70;1789002;79;21496;-64
2021/06/05 06:20:39;;;;;;;10.63;3.87;;;;;;;20.11;65.63;99689.45;1789732;79;20969;-66
2021/06/05 06:23:05;;;;;;;7.10;3.58;;;;;;;19.95;65.08;99688.27;1789370;79;21016;-66
2021/06/05 06:25:32;;;;;;;11.53;3.33;;;;;;;19.99;64.87;99685.14;1789829;79;20911;-65
2021/06/05 06:28:00;;;;;;;10.78;3.77;;;;;;;20.09;65.36;99675.36;1789674;79;22013;-65
2021/06/05 06:30:33;;;;;;;5.67;3.20;;;;;;;20.20;63.78;99688.14;1789342;80;21041;-65
2021/06/05 06:33:03;;;;;;;6.85;3.37;;;;;;;20.38;62.92;99687.63;1789431;79;20918;-65
2021/06/05 06:35:31;;;;;;;17.70;3.85;;;;;;;20.64;62.98;99685.02;1788538;80;20989;-66
2021/06/05 06:37:58;;;;;;;8.93;3.27;;;;;;;20.77;63.75;99686.80;1789365;79;21004;-65
2021/06/05 06:40:28;;;;;;;10.45;3.72;;;;;;;20.75;60.12;99687.13;1787301;78;21111;-67
2021/06/05 06:42:57;;;;;;;6.50;3.80;;;;;;;20.88;59.45;99677.20;1784527;80;20962;-70
2021/06/05 06:45:29;;;;;;;6.47;3.27;;;;;;;20.93;58.91;99683.06;1788138;80;20930;-68
2021/06/05 06:47:57;;;;;;;11.88;3.50;;;;;;;20.93;58.91;99683.06;1757586;81;21037;-67
2021/06/05 06:50:26;;;;;;;10.58;3.15;;;;;;;21.02;59.05;99687.14;1757051;81;21105;-64
2021/06/05 06:52:54;;;;;;;9.58;3.70;;;;;;;21.33;57.01;99681.53;1754939;81;21127;-64
2021/06/05 06:55:22;;;;;;;15.28;3.80;;;;;;;21.17;57.44;99680.66;1754835;81;21023;-67
2021/06/05 06:57:49;;;;;;;;;;;;;;;21.29;59.24;99673.73;1757182;81;21002;-67
2021/06/05 07:00:21;;;;;;;6.78;2.80;;;;;;;21.25;58.81;99675.53;1755280;81;20147;-66
2021/06/05 07:02:47;;;;;;;11.40;3.10;;;;;;;21.58;57.77;99673.92;1753459;81;21016;-67
2021/06/05 07:05:14;;;;;;;5.03;2.52;;;;;;;22.24;54.59;99668.11;1754554;81;21149;-66
2021/06/05 07:07:43;;;;;;;3.40;2.30;;;;;;;22.84;52.45;99668.08;1754514;81;20970;-66
2021/06/05 07:10:11;;;;;;;11.03;2.87;;;;;;;23.20;46.37;99671.61;1754678;81;20998;-67
2021/06/05 07:12:38;;;;;;;7.17;2.75;;;;;;;23.03;47.67;99664.91;1754897;81;21509;-67
2021/06/05 07:15:08;;;;;;;8.55;2.35;;;;;;;22.82;47.71;99668.97;1769627;80;20976;-66
2021/06/05 07:17:35;;;;;;;14.78;3.15;;;;;;;22.90;48.11;99663.42;1785081;80;21133;-66
2021/06/05 07:20:08;;;;;;;8.33;2.20;;;;;;;23.08;49.57;99661.39;1784897;80;21001;-67
2021/06/05 07:22:35;;;;;;;4.03;2.12;;;;;;;23.12;48.42;99664.25;1785554;80;21481;-64
2021/06/05 07:25:02;;;;;;;4.70;2.05;;;;;;;23.24;43.91;99660.20;1785705;80;20979;-69
2021/06/05 07:27:29;;;;;;;6.40;2.27;;;;;;;23.21;46.70;99660.88;1785547;80;20971;-67
2021/06/05 07:29:58;;;;;;;7.10;2.80;;;;;;;23.06;47.14;99652.71;1785607;80;23104;-68
2021/06/05 07:32:25;;;;;;;6.37;2.22;;;;;;;22.78;45.78;99652.97;1786056;80;20927;-67
2021/06/05 07:34:57;;;;;;;4.33;2.30;;;;;;;22.86;47.19;99649.39;1785833;80;20976;-67
2021/06/05 07:37:27;;;;;;;4.35;2.40;;;;;;;22.98;47.79;99649.48;1786446;80;21506;-66
2021/06/05 07:39:54;;;;;;;4.25;2.62;;;;;;;23.12;48.87;99643.72;1786205;80;20872;-66
2021/06/05 07:42:22;;;;;;;7.42;2.95;;;;;;;23.40;48.69;99639.05;1786302;80;21961;-66
2021/06/05 07:44:50;;;;;;;6.17;2.15;;;;;;;23.56;45.87;99634.52;1785633;80;20991;-67
2021/06/05 07:47:18;;;;;;;6.00;2.08;;;;;;;23.28;43.93;99639.23;1757297;80;21034;-67
2021/06/05 07:49:46;;;;;;;;;;;;;;;23.15;45.19;99628.02;1788329;80;20943;-67
2021/06/05 07:52:13;;;;;;;7.85;2.40;;;;;;;23.30;43.42;99629.32;1785892;80;20094;-67
2021/06/05 07:54:41;;;;;;;5.42;2.27;;;;;;;23.42;44.01;99621.14;1786159;80;21153;-66
2021/06/05 07:57:08;;;;;;;6.00;2.30;;;;;;;23.37;43.20;99621.36;1750860;80;20975;-68
2021/06/05 07:59:37;;;;;;;7.33;2.15;;;;;;;23.25;43.28;99622.11;1786546;80;21007;-66
2021/06/05 08:02:05;;;;;;;10.13;2.40;;;;;;;23.52;43.50;99624.02;1785728;80;20946;-69
2021/06/05 08:04:32;;;;;;;5.65;2.67;;;;;;;23.65;43.16;99619.36;1786114;80;21009;-68
2021/06/05 08:06:59;;;;;;;4.97;2.45;;;;;;;23.74;42.68;99614.05;1785970;80;21944;-63
2021/06/05 08:09:31;;;;;;;3.85;2.10;;;;;;;23.74;42.68;99614.05;1785753;80;20966;-66
2021/06/05 08:11:59;;;;;;;6.80;2.05;;;;;;;23.72;41.87;99614.92;1786090;80;21738;-65
2021/06/05 08:14:27;;;;;;;7.75;2.17;;;;;;;23.65;42.45;99609.78;1785220;80;20900;-68
2021/06/05 08:16:54;;;;;;;5.10;2.17;;;;;;;23.73;41.70;99612.43;1786202;80;20884;-66
2021/06/05 08:19:23;;;;;;;4.92;2.22;;;;;;;23.80;41.56;99611.87;1754380;80;20962;-68
2021/06/05 08:21:53;;;;;;;9.10;2.15;;;;;;;23.81;43.40;99608.56;1757567;80;21490;-67
2021/06/05 08:24:35;;;;;;;6.25;2.60;;;;;;;24.02;41.65;99613.95;1785431;80;20836;-67
2021/06/05 08:27:02;;;;;;;2.83;2.30;;;;;;;24.27;41.31;99607.89;1786440;80;21502;-68
2021/06/05 08:29:30;;;;;;;4.70;2.25;;;;;;;24.49;41.72;99601.14;1786149;80;21489;-68
2021/06/05 08:31:57;;;;;;;7.70;2.47;;;;;;;24.57;39.86;99602.95;1786364;80;21252;-67
2021/06/05 08:34:25;;;;;;;2.25;1.95;;;;;;;24.35;41.31;99606.95;1786192;80;20931;-67
2021/06/05 08:36:52;;;;;;;8.63;2.40;;;;;;;24.36;39.92;99598.97;1786575;80;20916;-68
2021/06/05 08:39:19;;;;;;;;;;;;;;;24.33;40.58;99592.81;1735199;80;21455;-69
2021/06/05 08:41:50;;;;;;;4.55;2.00;;;;;;;24.60;39.87;99593.47;1786186;80;20201;-69
2021/06/05 08:44:23;;;;;;;4.03;2.00;;;;;;;24.68;38.75;99587.61;1786036;80;21130;-68
2021/06/05 08:47:03;;;;;;;7.28;2.08;;;;;;;24.92;39.12;99596.92;1785606;80;20955;-68
2021/06/05 08:49:35;;;;;;;7.03;1.90;;;;;;;24.87;38.66;99595.22;1785820;80;20963;-71
2021/06/05 08:52:13;;;;;;;7.83;1.98;;;;;;;24.81;37.26;99590.53;1785078;80;21066;-69
2021/06/05 08:55:25;;;;;;;5.22;1.70;;;;;;;24.71;38.38;99595.72;1785615;80;21038;-69
2021/06/05 08:58:01;;;;;;;4.22;1.87;;;;;;;24.83;36.88;99583.33;1785624;80;20883;-69
2021/06/05 09:00:38;;;;;;;2.85;1.95;;;;;;;25.05;36.61;99587.48;1785729;80;21530;-66
2021/06/05 09:03:12;;;;;;;7.12;1.80;;;;;;;24.54;37.04;99587.98;1785117;80;20907;-67
2021/06/05 09:05:57;;;;;;;5.42;1.77;;;;;;;24.41;36.65;99582.85;1782935;80;21462;-69
2021/06/05 09:08:25;;;;;;;9.30;2.05;;;;;;;24.55;37.38;99584.69;1787253;80;20952;-68
2021/06/05 09:10:56;;;;;;;7.58;3.45;;;;;;;24.13;36.96;99579.44;1788632;80;21063;-68
2021/06/05 09:13:24;;;;;;;6.47;2.70;;;;;;;23.58;38.95;99576.66;1788235;79;20899;-67
2021/06/05 09:16:11;;;;;;;9.83;4.65;;;;;;;23.22;40.65;99570.74;1789159;80;20940;-69
2021/06/05 09:19:13;;;;;;;13.95;4.53;;;;;;;23.46;40.22;99570.00;1765056;80;20947;-69
2021/06/05 09:21:44;;;;;;;10.08;3.37;;;;;;;23.63;39.78;99571.75;1787860;80;21066;-70
2021/06/05 09:24:26;;;;;;;5.12;2.27;;;;;;;23.57;39.17;99570.38;1786676;80;21099;-69
2021/06/05 09:27:22;;;;;;;9.85;4.47;;;;;;;23.27;39.46;99574.66;1785539;80;20908;-71
2021/06/05 09:30:08;;;;;;;10.50;2.90;;;;;;;23.18;40.59;99571.20;1785439;80;21600;-69
2021/06/05 09:33:00;;;;;;;13.22;3.30;;;;;;;23.49;40.12;99565.78;1785980;80;21541;-67
2021/06/05 09:36:13;;;;;;;;;;;;;;;;;;;;;
2021/06/05 09:38:34;;;;;;;9.35;2.33;;;;;;;24.73;38.96;99563.24;1661025;85;21225;-69
2021/06/05 09:41:15;;;;;;;2.60;1.82;;;;;;;24.80;36.68;99568.36;1681603;85;21581;-69
2021/06/05 09:43:43;;;;;;;4.17;1.92;;;;;;;24.42;37.93;99562.48;1679958;85;21148;-69
2021/06/05 09:46:47;;;;;;;4.58;1.80;;;;;;;24.32;37.36;99563.77;1679796;85;21485;-69
2021/06/05 09:49:39;;;;;;;;;;;;;;;24.05;36.89;99557.86;1624582;87;21531;-69
2021/06/05 09:52:31;;;;;;;6.62;2.00;;;;;;;23.92;37.45;99557.06;1637441;87;20548;-70
2021/06/05 09:55:12;;;;;;;6.40;1.92;;;;;;;23.57;38.24;99546.27;1639485;87;20980;-70
2021/06/05 09:57:59;;;;;;;5.10;1.90;;;;;;;24.19;39.19;99553.39;1633124;87;20980;-71
2021/06/05 10:00:38;;;;;;;;;;;;;;;24.73;38.10;99549.52;1638001;87;21479;-70
2021/06/05 10:03:25;;;;;;;3.77;1.70;;;;;;;25.59;35.23;99544.96;1619064;87;20758;-70
2021/06/05 10:05:53;;;;;;;3.90;1.70;;;;;;;25.85;33.70;99545.80;1639272;87;21170;-68
2021/06/05 10:08:41;;;;;;;6.90;2.55;;;;;;;25.78;33.54;99542.30;1638703;87;21110;-69
2021/06/05 10:11:31;;;;;;;5.55;2.20;;;;;;;25.03;35.48;99535.64;1638332;87;22030;-70
2021/06/05 10:14:19;;;;;;;4.37;2.60;;;;;;;24.67;38.19;99535.26;1666458;84;20980;-68
2021/06/05 10:17:07;;;;;;;;;;;;;;;24.34;37.89;99532.68;1610946;89;21012;-68
2021/06/05 10:20:16;;;;;;;23.10;10.32;;;;;;;23.80;39.18;99531.03;1610690;89;20448;-73
2021/06/05 10:22:59;;;;;;;;;;;;;;;;;;;;;
2021/06/05 10:25:34;;;;;;;3.12;2.12;;;;;;;24.32;37.35;99529.48;1497434;95;21161;-71
2021/06/05 10:28:09;;;;;;;6.87;2.20;;;;;;;24.21;37.86;99528.37;1498120;95;21154;-68
2021/06/05 10:30:52;;;;;;;3.42;2.12;;;;;;;24.19;36.56;99530.09;1498170;95;21688;-69
2021/06/05 10:33:34;;;;;;;9.05;2.37;;;;;;;24.16;37.06;99526.67;1497908;95;22146;-72
2021/06/05 10:36:07;;;;;;;3.45;1.80;;;;;;;24.18;37.97;99526.55;1481853;96;21152;-69
2021/06/05 10:38:48;;;;;;;7.97;2.95;;;;;;;24.12;37.07;99518.32;1499149;95;21623;-70
2021/06/05 10:41:20;;;;;;;6.28;2.52;;;;;;;24.01;36.87;99524.61;1481606;96;21130;-69
2021/06/05 10:43:46;;;;;;;5.53;2.40;;;;;;;23.82;38.79;99518.37;1476846;96;21225;-71
2021/06/05 10:46:44;;;;;;;9.60;2.92;;;;;;;23.95;39.37;99516.62;1474358;97;21168;-67
2021/06/05 10:49:32;;;;;;;9.63;2.27;;;;;;;23.92;37.48;99509.67;1473577;97;21082;-69
2021/06/05 10:52:24;;;;;;;10.63;2.55;;;;;;;23.64;37.75;99510.89;1473692;97;21172;-66
2021/06/05 10:54:50;;;;;;;6.08;2.30;;;;;;;23.64;38.19;99508.98;1473950;97;21110;-71
2021/06/05 10:57:27;;;;;;;11.85;2.55;;;;;;;23.63;38.84;99506.57;1473545;97;21144;-66
2021/06/05 11:00:01;;;;;;;5.83;2.70;;;;;;;23.80;39.44;99505.58;1473883;97;21334;-70
2021/06/05 11:02:39;;;;;;;11.25;2.35;;;;;;;24.21;39.93;99504.49;1473479;97;21105;-70
2021/06/05 11:05:32;;;;;;;18.48;2.80;;;;;;;24.51;39.57;99509.12;1473492;97;21125;-70
2021/06/05 11:08:20;;;;;;;2.40;1.90;;;;;;;24.89;39.43;99507.01;1473683;97;21141;-67
2021/06/05 11:10:51;;;;;;;4.83;3.00;;;;;;;25.19;39.39;99507.47;1473743;97;21176;-69
2021/06/05 11:13:43;;;;;;;8.35;3.25;;;;;;;25.50;37.41;99503.12;1480262;95;21205;-71
2021/06/05 11:16:17;;;;;;;2.58;2.20;;;;;;;25.69;37.11;99503.20;1487724;96;21118;-69
2021/06/05 11:19:07;;;;;;;5.40;2.33;;;;;;;25.78;36.12;99501.06;1489347;94;21145;-71
2021/06/05 11:21:40;;;;;;;6.35;3.45;;;;;;;25.39;37.10;99500.91;1537534;92;21174;-69
2021/06/05 11:24:17;;;;;;;5.65;3.10;;;;;;;25.09;37.05;99499.72;1535531;93;21147;-69
2021/06/05 11:26:52;;;;;;;5.92;2.50;;;;;;;24.50;37.38;99498.48;1535385;93;21152;-70
2021/06/05 11:29:30;;;;;;;68.95;6.08;;;;;;;24.17;38.69;99498.89;1619277;85;21089;-70
2021/06/05 11:32:21;;;;;;;9.75;7.42;;;;;;;24.10;39.27;99500.05;1650741;85;20970;-70
2021/06/05 11:35:00;;;;;;;10.85;8.70;;;;;;;24.22;37.93;99498.43;1619988;87;21145;-69
2021/06/05 11:37:45;;;;;;;9.63;3.90;;;;;;;24.06;38.63;99498.36;1622411;87;21063;-68
2021/06/05 11:40:15;;;;;;;6.10;3.20;;;;;;;23.82;36.28;99490.39;1645956;87;21802;-69
2021/06/05 11:42:53;;;;;;;6.85;2.95;;;;;;;23.88;38.63;99495.84;1643330;87;21111;-68
2021/06/05 11:45:30;;;;;;;13.08;2.40;;;;;;;24.09;37.04;99497.09;1645986;87;21079;-71
2021/06/05 11:48:46;;;;;;;4.97;2.52;;;;;;;24.00;37.45;99489.55;1652061;84;21132;-71
2021/06/05 11:51:28;;;;;;;6.33;2.17;;;;;;;24.09;39.57;99486.12;1646360;85;21587;-72
2021/06/05 11:54:14;;;;;;;4.58;2.20;;;;;;;24.68;38.52;99492.14;1639739;87;21097;-72
2021/06/05 11:57:02;;;;;;;5.12;2.27;;;;;;;24.92;36.90;99490.65;1639646;87;21636;-68
2021/06/05 11:59:35;;;;;;;;;;;;;;;25.24;36.88;99479.16;1639406;87;21797;-68